Time;durP1;ratioP1;P1;durP2;ratioP2;P2;SDS_P1;SDS_P2;PMS_P1;PMS_P2;Temp;Humidity;BMP_temperature;BMP_pressure;BME280_temperature;BME280_humidity;BME280_pressure;Samples;Min_cycle;Max_cycle;Signal;HPM_P1;HPM_P2
2021/12/07 00:02:55;;;;;;;49.73;21.57;;;;;;;;;;10498808;28;20283;-64
2021/12/07 00:07:56;;;;;;;48.27;22.33;;;;;;;;;;10499277;28;20620;-65
2021/12/07 00:12:58;;;;;;;39.97;17.77;;;;;;;;;;10499001;28;20178;-64
2021/12/07 00:17:59;;;;;;;38.03;15.53;;;;;;;;;;10497550;28;20248;-65
2021/12/07 00:23:02;;;;;;;39.67;19.07;;;;;;;;;;10482626;28;21202;-65
2021/12/07 00:28:04;;;;;;;44.77;20.60;;;;;;;;;;10479085;28;20178;-65
2021/12/07 00:33:11;;;;;;;41.67;20.37;;;;;;;;;;10498625;28;20209;-64
2021/12/07 00:38:14;;;;;;;40.47;17.27;;;;;;;;;;10498629;28;20379;-65
2021/12/07 00:43:15;;;;;;;41.40;20.30;;;;;;;;;;10498646;28;20678;-64
2021/12/07 00:48:16;;;;;;;24.27;12.60;;;;;;;;;;10482717;28;20295;-64
2021/12/07 00:53:18;;;;;;;39.90;19.03;;;;;;;;;;10495957;28;20268;-65
2021/12/07 00:58:23;;;;;;;36.17;16.50;;;;;;;;;;10470106;28;20265;-65
2021/12/07 01:03:25;;;;;;;30.90;13.67;;;;;;;;;;10477158;28;20314;-64
2021/12/07 01:29:38;;;;;;;37.73;18.97;;;;;;;;;;10493033;28;20189;-65
2021/12/07 02:00:46;;;;;;;21.23;12.63;;;;;;;;;;10496520;28;20228;-64
2021/12/07 02:05:48;;;;;;;24.23;12.00;;;;;;;;;;10493742;28;20190;-65
2021/12/07 02:10:51;;;;;;;27.77;13.17;;;;;;;;;;10478073;28;20189;-64
2021/12/07 02:15:53;;;;;;;31.43;14.80;;;;;;;;;;10486534;28;20217;-65
2021/12/07 02:21:12;;;;;;;23.43;12.43;;;;;;;;;;10488801;28;20201;-64
2021/12/07 02:26:14;;;;;;;30.77;15.20;;;;;;;;;;10487111;28;20170;-64
2021/12/07 02:31:15;;;;;;;27.83;13.90;;;;;;;;;;10457792;28;20206;-65
2021/12/07 02:36:17;;;;;;;32.03;15.70;;;;;;;;;;10459579;28;20178;-64
2021/12/07 02:41:18;;;;;;;28.23;13.37;;;;;;;;;;10494404;28;20976;-64
2021/12/07 02:46:20;;;;;;;19.07;10.40;;;;;;;;;;10474533;28;20351;-65
2021/12/07 02:51:24;;;;;;;25.57;13.27;;;;;;;;;;10468652;28;20555;-65
2021/12/07 02:56:25;;;;;;;31.50;15.33;;;;;;;;;;10501281;28;20174;-65
2021/12/07 03:01:31;;;;;;;37.17;16.13;;;;;;;;;;10494728;28;20828;-65
2021/12/07 03:06:55;;;;;;;33.37;16.83;;;;;;;;;;10484603;28;20221;-65
2021/12/07 03:28:00;;;;;;;35.00;16.93;;;;;;;;;;10482175;28;20174;-65
2021/12/07 03:33:03;;;;;;;30.40;12.40;;;;;;;;;;10483276;28;20198;-65
2021/12/07 03:38:06;;;;;;;34.97;17.27;;;;;;;;;;10483018;28;20174;-66
2021/12/07 03:43:09;;;;;;;31.73;15.10;;;;;;;;;;10482845;28;20289;-65
2021/12/07 03:48:11;;;;;;;37.70;17.93;;;;;;;;;;10480035;28;20846;-65
2021/12/07 03:53:12;;;;;;;26.77;12.00;;;;;;;;;;10482145;28;20215;-65
2021/12/07 03:58:14;;;;;;;32.43;15.80;;;;;;;;;;10465513;28;20304;-65
2021/12/07 04:03:17;;;;;;;34.80;16.03;;;;;;;;;;10482911;28;20279;-65
2021/12/07 04:08:19;;;;;;;37.50;18.23;;;;;;;;;;10478835;28;20201;-65
2021/12/07 04:13:21;;;;;;;34.13;16.67;;;;;;;;;;10480508;28;20220;-65
2021/12/07 04:18:22;;;;;;;38.30;17.87;;;;;;;;;;10479399;28;20252;-65
2021/12/07 04:23:24;;;;;;;38.43;16.67;;;;;;;;;;10479713;28;20732;-65
2021/12/07 04:28:25;;;;;;;39.73;18.90;;;;;;;;;;10495933;28;20209;-65
2021/12/07 04:33:29;;;;;;;37.47;17.63;;;;;;;;;;10498314;28;20214;-65
2021/12/07 04:38:30;;;;;;;33.53;15.20;;;;;;;;;;10496209;28;20684;-65
2021/12/07 04:43:31;;;;;;;30.63;15.53;;;;;;;;;;10478331;28;20208;-65
2021/12/07 04:48:56;;;;;;;42.43;19.33;;;;;;;;;;10496259;28;20218;-64
2021/12/07 04:59:13;;;;;;;33.80;15.17;;;;;;;;;;10495081;28;20208;-65
2021/12/07 05:04:20;;;;;;;37.20;17.40;;;;;;;;;;10488136;28;20663;-64
2021/12/07 05:14:44;;;;;;;34.77;16.27;;;;;;;;;;10492059;28;20186;-65
2021/12/07 05:25:29;;;;;;;42.17;18.67;;;;;;;;;;10493652;28;20273;-65
2021/12/07 05:41:07;;;;;;;44.67;18.37;;;;;;;;;;10490689;28;20206;-65
2021/12/07 05:46:08;;;;;;;40.77;19.07;;;;;;;;;;10488848;28;20861;-65
2021/12/07 05:51:09;;;;;;;43.07;19.07;;;;;;;;;;10490552;28;20674;-65
2021/12/07 05:56:10;;;;;;;43.87;20.03;;;;;;;;;;10492914;28;20192;-65
2021/12/07 06:01:11;;;;;;;42.77;19.27;;;;;;;;;;10488436;28;20217;-66
2021/12/07 06:06:12;;;;;;;44.47;19.43;;;;;;;;;;10488767;28;20671;-66
2021/12/07 06:11:13;;;;;;;44.40;19.27;;;;;;;;;;10487369;28;20232;-66
2021/12/07 06:16:16;;;;;;;48.13;21.10;;;;;;;;;;10489777;28;20209;-65
2021/12/07 06:21:17;;;;;;;45.07;21.40;;;;;;;;;;10490224;28;20213;-66
2021/12/07 06:26:18;;;;;;;44.13;20.93;;;;;;;;;;10497705;28;20228;-66
2021/12/07 06:31:19;;;;;;;45.20;19.73;;;;;;;;;;10489955;28;20366;-66
2021/12/07 06:36:20;;;;;;;38.37;19.40;;;;;;;;;;10497306;28;20178;-66
2021/12/07 06:41:21;;;;;;;43.67;20.63;;;;;;;;;;10496886;28;20581;-66
2021/12/07 06:46:22;;;;;;;44.80;20.43;;;;;;;;;;10503243;28;20210;-66
2021/12/07 06:51:23;;;;;;;46.00;21.03;;;;;;;;;;10478998;28;20177;-65
2021/12/07 06:56:26;;;;;;;44.03;20.23;;;;;;;;;;10500772;28;20220;-65
2021/12/07 07:01:27;;;;;;;44.67;17.73;;;;;;;;;;10500359;28;20232;-65
2021/12/07 07:06:28;;;;;;;33.40;14.97;;;;;;;;;;10502801;28;20211;-66
2021/12/07 07:11:29;;;;;;;44.23;20.47;;;;;;;;;;10502197;28;20182;-66
2021/12/07 07:16:31;;;;;;;39.57;20.13;;;;;;;;;;10480926;28;20225;-64
2021/12/07 07:21:32;;;;;;;39.60;18.80;;;;;;;;;;10496941;28;20217;-66
2021/12/07 07:26:33;;;;;;;43.40;20.83;;;;;;;;;;10498854;28;20296;-66
2021/12/07 07:31:40;;;;;;;41.33;18.60;;;;;;;;;;10500001;28;20214;-65
2021/12/07 07:36:41;;;;;;;47.23;20.50;;;;;;;;;;10503361;28;20181;-66
2021/12/07 07:41:42;;;;;;;35.27;17.27;;;;;;;;;;10503966;28;20209;-66
2021/12/07 07:46:43;;;;;;;41.50;19.03;;;;;;;;;;10502483;28;20229;-66
2021/12/07 07:51:44;;;;;;;39.53;18.03;;;;;;;;;;10505115;28;20186;-66
2021/12/07 07:56:45;;;;;;;36.53;15.17;;;;;;;;;;10503788;28;20730;-66
2021/12/07 08:01:47;;;;;;;42.93;19.83;;;;;;;;;;10504329;28;20224;-66
2021/12/07 08:06:48;;;;;;;42.83;20.00;;;;;;;;;;10503162;28;20182;-66
2021/12/07 08:11:49;;;;;;;40.13;19.47;;;;;;;;;;10501873;28;20727;-66
2021/12/07 08:16:50;;;;;;;44.33;20.40;;;;;;;;;;10479756;28;20224;-66
2021/12/07 08:21:51;;;;;;;40.10;18.50;;;;;;;;;;10500657;28;20213;-66
2021/12/07 08:26:52;;;;;;;41.13;20.23;;;;;;;;;;10459124;28;20174;-65
2021/12/07 08:31:53;;;;;;;37.27;17.80;;;;;;;;;;10492768;28;20214;-66
2021/12/07 08:36:54;;;;;;;36.20;17.70;;;;;;;;;;10495786;28;20187;-66
2021/12/07 08:41:55;;;;;;;33.00;16.90;;;;;;;;;;10497742;28;20209;-66
2021/12/07 08:46:56;;;;;;;37.67;17.53;;;;;;;;;;10481613;28;20254;-66
2021/12/07 08:51:57;;;;;;;37.23;18.67;;;;;;;;;;10481903;28;20263;-66
2021/12/07 09:02:21;;;;;;;39.93;17.67;;;;;;;;;;10492492;28;20590;-66
2021/12/07 09:07:23;;;;;;;35.07;16.27;;;;;;;;;;10490128;28;20197;-66
2021/12/07 09:12:24;;;;;;;36.10;15.97;;;;;;;;;;10495289;28;20581;-66
2021/12/07 09:17:25;;;;;;;34.43;18.00;;;;;;;;;;10500739;28;20221;-65
2021/12/07 09:22:28;;;;;;;28.52;16.58;;;;;;;;;;10493369;28;20205;-66
2021/12/07 09:27:29;;;;;;;36.63;16.70;;;;;;;;;;10493609;28;20254;-66
2021/12/07 09:32:30;;;;;;;32.58;16.20;;;;;;;;;;10485048;28;20207;-66
2021/12/07 09:37:31;;;;;;;30.17;16.00;;;;;;;;;;10492341;28;20221;-66
2021/12/07 09:42:32;;;;;;;30.35;15.27;;;;;;;;;;10493662;28;20213;-66
2021/12/07 09:47:33;;;;;;;32.03;16.30;;;;;;;;;;10497436;28;20231;-66
2021/12/07 09:52:34;;;;;;;28.95;14.88;;;;;;;;;;10496113;28;20220;-66
2021/12/07 09:57:35;;;;;;;30.00;15.07;;;;;;;;;;10499174;28;20190;-66
2021/12/07 10:02:37;;;;;;;32.17;15.97;;;;;;;;;;10501211;28;20248;-65
2021/12/07 10:07:39;;;;;;;29.25;15.35;;;;;;;;;;10499591;28;20189;-66
2021/12/07 10:12:40;;;;;;;31.98;15.02;;;;;;;;;;10498931;28;20871;-65
2021/12/07 10:17:42;;;;;;;30.67;15.07;;;;;;;;;;10481665;28;20205;-65
2021/12/07 10:22:43;;;;;;;26.38;15.13;;;;;;;;;;10503411;28;20210;-65
2021/12/07 10:27:44;;;;;;;26.05;14.65;;;;;;;;;;10489100;28;20197;-66
2021/12/07 10:32:59;;;;;;;28.88;15.65;;;;;;;;;;10498634;28;20300;-66
2021/12/07 10:38:09;;;;;;;27.40;14.70;;;;;;;;;;10484371;28;20178;-66
2021/12/07 10:43:10;;;;;;;28.15;15.32;;;;;;;;;;10505251;28;20218;-66
2021/12/07 10:48:23;;;;;;;29.08;14.57;;;;;;;;;;10502180;28;20268;-66
2021/12/07 10:53:24;;;;;;;23.92;14.85;;;;;;;;;;10500700;28;20182;-65
2021/12/07 10:58:30;;;;;;;26.38;15.20;;;;;;;;;;10501924;28;20190;-66
2021/12/07 11:03:31;;;;;;;24.08;14.73;;;;;;;;;;10501372;28;20232;-66
2021/12/07 11:08:33;;;;;;;25.67;14.02;;;;;;;;;;10503059;28;20193;-66
2021/12/07 11:13:36;;;;;;;23.60;14.73;;;;;;;;;;10483122;28;20710;-67
2021/12/07 11:18:39;;;;;;;21.88;14.23;;;;;;;;;;10484327;28;24626;-67
2021/12/07 11:23:51;;;;;;;19.00;13.05;;;;;;;;;;10504216;28;20213;-66
2021/12/07 11:34:23;;;;;;;19.67;12.05;;;;;;;;;;10504857;28;20273;-66
2021/12/07 11:39:33;;;;;;;20.35;12.50;;;;;;;;;;10486740;28;20194;-66
2021/12/07 11:44:37;;;;;;;20.95;13.43;;;;;;;;;;10494049;28;20292;-67
2021/12/07 11:49:39;;;;;;;23.67;14.32;;;;;;;;;;10501393;28;20228;-66
2021/12/07 11:54:41;;;;;;;23.95;13.30;;;;;;;;;;10499679;28;20344;-66
2021/12/07 11:59:43;;;;;;;24.00;14.75;;;;;;;;;;10500536;28;20190;-66
2021/12/07 12:04:44;;;;;;;19.60;12.15;;;;;;;;;;10428736;23;20234;-73
2021/12/07 12:09:49;;;;;;;19.80;12.60;;;;;;;;;;10364478;28;20168;-73
2021/12/07 12:15:09;;;;;;;20.98;13.30;;;;;;;;;;10352236;28;20203;-73
2021/12/07 12:20:19;;;;;;;19.23;12.90;;;;;;;;;;10369230;28;20215;-73
2021/12/07 12:25:22;;;;;;;21.88;12.25;;;;;;;;;;10367190;28;20215;-73
2021/12/07 12:30:28;;;;;;;20.75;12.38;;;;;;;;;;10351528;28;20179;-73
2021/12/07 12:35:31;;;;;;;21.90;13.10;;;;;;;;;;10360426;28;20285;-73
2021/12/07 12:40:33;;;;;;;21.77;14.10;;;;;;;;;;10378924;28;20183;-73
2021/12/07 12:45:37;;;;;;;22.65;12.85;;;;;;;;;;10377686;28;20234;-73
2021/12/07 12:50:46;;;;;;;21.65;13.65;;;;;;;;;;10357788;28;20308;-74
2021/12/07 12:55:47;;;;;;;26.05;12.88;;;;;;;;;;10370723;28;20208;-74
2021/12/07 13:01:10;;;;;;;23.73;13.25;;;;;;;;;;10360448;28;20219;-73
2021/12/07 13:06:14;;;;;;;26.52;13.63;;;;;;;;;;10350065;28;20222;-73
2021/12/07 13:11:30;;;;;;;22.00;13.50;;;;;;;;;;10378288;28;20183;-72
2021/12/07 13:16:33;;;;;;;22.95;14.13;;;;;;;;;;10338892;28;20750;-73
2021/12/07 13:21:41;;;;;;;27.40;14.70;;;;;;;;;;10373796;28;20207;-74
2021/12/07 13:26:44;;;;;;;25.20;14.00;;;;;;;;;;10356179;28;20210;-74
2021/12/07 13:31:47;;;;;;;29.67;14.88;;;;;;;;;;10377253;28;20630;-73
2021/12/07 13:36:54;;;;;;;25.75;15.32;;;;;;;;;;10354351;28;20223;-73
2021/12/07 13:42:02;;;;;;;22.02;14.23;;;;;;;;;;10375546;28;20254;-72
2021/12/07 13:47:06;;;;;;;24.95;14.40;;;;;;;;;;10366611;28;20222;-74
2021/12/07 13:52:16;;;;;;;22.83;14.40;;;;;;;;;;10351634;28;20188;-74
2021/12/07 13:57:18;;;;;;;40.50;19.52;;;;;;;;;;10362761;28;20580;-72
2021/12/07 14:02:22;;;;;;;32.22;18.88;;;;;;;;;;10357695;28;20247;-73
2021/12/07 14:07:23;;;;;;;30.17;17.05;;;;;;;;;;10364606;28;20219;-73
2021/12/07 14:12:24;;;;;;;23.67;15.07;;;;;;;;;;10357231;28;20188;-73
2021/12/07 14:17:36;;;;;;;34.92;21.30;;;;;;;;;;10348438;28;20309;-73
2021/12/07 14:22:37;;;;;;;40.75;21.70;;;;;;;;;;10342591;28;20200;-73
2021/12/07 14:27:39;;;;;;;38.70;23.05;;;;;;;;;;10371045;28;20207;-72
2021/12/07 14:32:41;;;;;;;51.80;30.52;;;;;;;;;;10373209;28;21003;-73
2021/12/07 14:37:42;;;;;;;30.75;17.00;;;;;;;;;;10379704;28;20239;-72
2021/12/07 14:42:43;;;;;;;35.85;21.00;;;;;;;;;;10343793;28;20210;-73
2021/12/07 14:47:44;;;;;;;37.97;23.17;;;;;;;;;;10376809;28;20866;-73
2021/12/07 14:52:45;;;;;;;32.55;16.75;;;;;;;;;;10381764;28;20900;-73
2021/12/07 14:57:46;;;;;;;31.17;17.58;;;;;;;;;;10367745;28;20214;-73
2021/12/07 15:02:49;;;;;;;43.72;23.23;;;;;;;;;;10344635;28;20227;-74
2021/12/07 15:07:52;;;;;;;33.15;19.15;;;;;;;;;;10363307;28;20215;-73
2021/12/07 15:12:53;;;;;;;32.92;18.30;;;;;;;;;;10356608;28;20176;-74
2021/12/07 15:17:55;;;;;;;28.83;16.80;;;;;;;;;;10357717;28;20306;-72
2021/12/07 15:22:56;;;;;;;26.35;14.60;;;;;;;;;;10379429;28;20886;-73
2021/12/07 15:27:58;;;;;;;28.65;16.17;;;;;;;;;;10365500;28;20198;-74
2021/12/07 15:33:01;;;;;;;29.65;16.65;;;;;;;;;;10361219;28;20934;-74
2021/12/07 15:38:02;;;;;;;31.50;17.75;;;;;;;;;;10381298;28;20195;-74
2021/12/07 15:43:03;;;;;;;33.17;16.38;;;;;;;;;;10382063;28;20211;-76
2021/12/07 15:48:04;;;;;;;32.75;17.33;;;;;;;;;;10362966;28;20207;-74
2021/12/07 15:53:08;;;;;;;35.83;18.10;;;;;;;;;;10348674;28;20789;-75
2021/12/07 15:58:24;;;;;;;33.58;18.02;;;;;;;;;;10378628;28;20849;-75
2021/12/07 16:03:35;;;;;;;33.20;16.63;;;;;;;;;;10363985;28;20757;-76
2021/12/07 16:08:37;;;;;;;38.00;18.23;;;;;;;;;;10363405;28;20215;-76
2021/12/07 16:13:39;;;;;;;34.33;18.38;;;;;;;;;;10358000;28;20176;-76
2021/12/07 16:18:42;;;;;;;35.55;18.35;;;;;;;;;;10347857;28;20227;-74
2021/12/07 16:23:45;;;;;;;36.35;16.88;;;;;;;;;;10360688;28;20195;-76
2021/12/07 16:28:48;;;;;;;33.30;17.90;;;;;;;;;;10373033;28;20242;-75
2021/12/07 16:33:51;;;;;;;39.88;17.85;;;;;;;;;;10354678;28;20727;-76
2021/12/07 16:38:53;;;;;;;36.78;17.58;;;;;;;;;;10363987;28;20212;-76
2021/12/07 16:43:55;;;;;;;33.78;17.63;;;;;;;;;;10341576;28;20208;-75
2021/12/07 16:48:57;;;;;;;32.65;16.98;;;;;;;;;;10376065;28;20572;-75
2021/12/07 16:53:58;;;;;;;34.67;18.73;;;;;;;;;;10363627;28;20188;-74
2021/12/07 16:58:59;;;;;;;34.85;18.00;;;;;;;;;;10371775;28;20207;-75
2021/12/07 17:04:00;;;;;;;35.53;17.58;;;;;;;;;;10353686;28;20223;-75
2021/12/07 17:09:03;;;;;;;34.55;16.88;;;;;;;;;;10364675;28;20211;-74
2021/12/07 17:14:05;;;;;;;38.97;19.00;;;;;;;;;;10376070;28;20271;-75
2021/12/07 17:19:06;;;;;;;35.63;17.27;;;;;;;;;;10351256;28;20358;-75
2021/12/07 17:24:07;;;;;;;39.08;18.83;;;;;;;;;;10363667;28;20302;-76
2021/12/07 17:29:08;;;;;;;37.65;18.58;;;;;;;;;;10378529;28;20192;-75
2021/12/07 17:34:10;;;;;;;37.67;17.50;;;;;;;;;;10354001;28;20215;-75
2021/12/07 17:39:14;;;;;;;34.28;17.55;;;;;;;;;;10381664;28;20250;-75
2021/12/07 17:44:15;;;;;;;39.63;18.52;;;;;;;;;;10377500;28;20222;-76
2021/12/07 17:49:17;;;;;;;33.60;17.70;;;;;;;;;;10357388;28;20277;-75
2021/12/07 17:54:18;;;;;;;36.20;18.60;;;;;;;;;;10376357;28;20183;-75
2021/12/07 17:59:19;;;;;;;37.08;18.45;;;;;;;;;;10353525;28;20192;-75
2021/12/07 18:04:20;;;;;;;34.75;18.40;;;;;;;;;;10353443;28;20247;-75
2021/12/07 18:09:22;;;;;;;37.80;18.88;;;;;;;;;;10356606;28;20187;-75
2021/12/07 18:14:23;;;;;;;40.55;18.95;;;;;;;;;;10351008;28;20183;-76
2021/12/07 18:19:24;;;;;;;39.15;18.90;;;;;;;;;;10379357;28;20211;-75
2021/12/07 18:24:25;;;;;;;38.20;18.23;;;;;;;;;;10363912;28;20624;-74
2021/12/07 18:29:26;;;;;;;34.75;18.30;;;;;;;;;;10368806;28;20184;-76
2021/12/07 18:34:27;;;;;;;36.70;17.77;;;;;;;;;;10382463;28;20207;-77
2021/12/07 18:39:28;;;;;;;30.70;15.07;;;;;;;;;;10383891;28;20234;-77
2021/12/07 18:44:29;;;;;;;35.58;19.10;;;;;;;;;;10367415;28;21212;-76
2021/12/07 18:49:30;;;;;;;35.97;18.95;;;;;;;;;;10380404;28;20222;-78
2021/12/07 18:54:31;;;;;;;39.13;18.37;;;;;;;;;;10369935;28;20928;-77
2021/12/07 18:59:32;;;;;;;41.50;18.98;;;;;;;;;;10379063;28;20720;-77
2021/12/07 19:04:33;;;;;;;37.30;17.90;;;;;;;;;;10371236;28;20234;-78
2021/12/07 19:09:34;;;;;;;36.35;18.02;;;;;;;;;;10373426;28;20190;-78
2021/12/07 19:14:36;;;;;;;40.43;20.40;;;;;;;;;;10366751;28;20211;-77
2021/12/07 19:19:37;;;;;;;38.35;18.88;;;;;;;;;;10365854;28;20235;-78
2021/12/07 19:24:38;;;;;;;38.87;19.27;;;;;;;;;;10380097;28;20918;-78
2021/12/07 19:29:39;;;;;;;40.07;19.37;;;;;;;;;;10379943;28;20200;-78
2021/12/07 19:34:40;;;;;;;37.40;19.10;;;;;;;;;;10371757;28;20302;-79
2021/12/07 19:39:41;;;;;;;35.50;18.97;;;;;;;;;;10359208;28;20315;-79
2021/12/07 19:44:42;;;;;;;37.80;19.03;;;;;;;;;;10387768;28;20212;-78
2021/12/07 19:49:43;;;;;;;36.17;18.52;;;;;;;;;;10383848;28;20218;-79
2021/12/07 19:54:44;;;;;;;40.63;19.45;;;;;;;;;;10359549;28;20209;-78
2021/12/07 19:59:45;;;;;;;34.78;18.60;;;;;;;;;;10350464;28;20183;-78
2021/12/07 20:04:47;;;;;;;41.13;20.17;;;;;;;;;;10380966;28;20314;-79
2021/12/07 20:09:48;;;;;;;42.90;20.58;;;;;;;;;;10360436;28;20663;-78
2021/12/07 20:14:49;;;;;;;37.23;19.53;;;;;;;;;;10381753;28;20678;-78
2021/12/07 20:19:50;;;;;;;35.35;18.25;;;;;;;;;;10381409;28;20220;-79
2021/12/07 20:24:51;;;;;;;37.40;20.17;;;;;;;;;;10372255;28;20261;-79
2021/12/07 20:29:52;;;;;;;41.00;20.40;;;;;;;;;;10379902;28;20191;-78
2021/12/07 20:34:53;;;;;;;40.33;20.05;;;;;;;;;;10360335;28;20749;-79
2021/12/07 20:39:54;;;;;;;37.92;18.73;;;;;;;;;;10373990;28;20237;-79
2021/12/07 20:44:58;;;;;;;42.03;18.93;;;;;;;;;;10376839;28;20710;-78
2021/12/07 20:50:00;;;;;;;29.07;14.17;;;;;;;;;;10379211;28;20296;-78
2021/12/07 20:55:01;;;;;;;42.83;19.83;;;;;;;;;;10373607;28;20210;-78
2021/12/07 21:00:04;;;;;;;40.13;18.08;;;;;;;;;;10362052;28;20179;-78
2021/12/07 21:05:07;;;;;;;43.60;20.20;;;;;;;;;;10376647;28;20219;-74
2021/12/07 21:10:10;;;;;;;39.65;18.55;;;;;;;;;;10371752;28;20863;-75
2021/12/07 21:15:14;;;;;;;37.30;18.88;;;;;;;;;;10355934;28;20226;-76
2021/12/07 21:20:15;;;;;;;42.10;20.20;;;;;;;;;;10378949;28;20750;-75
2021/12/07 21:25:16;;;;;;;36.73;19.37;;;;;;;;;;10355175;28;20222;-75
2021/12/07 21:30:19;;;;;;;38.23;19.63;;;;;;;;;;10341872;28;20548;-74
2021/12/07 21:35:20;;;;;;;39.70;19.42;;;;;;;;;;10360882;28;20797;-74
2021/12/07 21:40:22;;;;;;;31.00;17.10;;;;;;;;;;10365977;28;20275;-74
2021/12/07 21:45:24;;;;;;;35.67;18.17;;;;;;;;;;10356052;28;20218;-75
2021/12/07 21:50:26;;;;;;;32.43;17.70;;;;;;;;;;10375374;28;20747;-75
2021/12/07 21:55:27;;;;;;;34.30;18.40;;;;;;;;;;10376725;28;20215;-74
2021/12/07 22:00:30;;;;;;;40.67;19.30;;;;;;;;;;10363036;28;20183;-74
2021/12/07 22:05:31;;;;;;;33.17;18.40;;;;;;;;;;10377272;28;20226;-74
2021/12/07 22:10:33;;;;;;;33.85;18.20;;;;;;;;;;10381482;28;20667;-74
2021/12/07 22:15:34;;;;;;;29.63;16.75;;;;;;;;;;10374714;28;20277;-74
2021/12/07 22:20:38;;;;;;;39.28;19.20;;;;;;;;;;10382012;28;20187;-74
2021/12/07 22:25:40;;;;;;;38.75;15.82;;;;;;;;;;10377483;28;20212;-74
2021/12/07 22:30:43;;;;;;;28.48;15.93;;;;;;;;;;10380107;28;20219;-74
2021/12/07 22:35:44;;;;;;;29.20;16.03;;;;;;;;;;10379717;28;20294;-75
2021/12/07 22:40:46;;;;;;;30.23;17.52;;;;;;;;;;10376589;28;20177;-74
2021/12/07 22:45:48;;;;;;;33.75;17.52;;;;;;;;;;10352622;28;20224;-74
2021/12/07 22:50:50;;;;;;;27.73;14.90;;;;;;;;;;10362202;28;20186;-75
2021/12/07 22:55:53;;;;;;;29.47;15.50;;;;;;;;;;10355762;28;20188;-74
2021/12/07 23:01:00;;;;;;;34.63;17.75;;;;;;;;;;10358386;28;20208;-74
2021/12/07 23:06:02;;;;;;;36.58;18.27;;;;;;;;;;10381101;28;20224;-75
2021/12/07 23:11:07;;;;;;;33.03;17.35;;;;;;;;;;10359797;28;20212;-75
2021/12/07 23:16:10;;;;;;;27.67;15.67;;;;;;;;;;10352771;28;20854;-74
2021/12/07 23:21:13;;;;;;;29.55;16.83;;;;;;;;;;10361191;28;20207;-74
2021/12/07 23:26:15;;;;;;;35.33;18.37;;;;;;;;;;10347667;28;20199;-75
2021/12/07 23:31:16;;;;;;;32.15;18.65;;;;;;;;;;10377562;28;20216;-76
2021/12/07 23:36:19;;;;;;;35.05;18.33;;;;;;;;;;10385961;28;20211;-74
2021/12/07 23:41:20;;;;;;;39.77;18.23;;;;;;;;;;10347629;28;20248;-74
2021/12/07 23:46:22;;;;;;;34.17;17.40;;;;;;;;;;10381635;28;21023;-73
2021/12/07 23:51:24;;;;;;;38.30;19.17;;;;;;;;;;10368117;28;20188;-74
2021/12/07 23:56:25;;;;;;;31.67;18.07;;;;;;;;;;10385486;28;20207;-75
